createdAt,value
2023-05-19T00:00:50.981Z,96076.00
2023-05-19T00:01:55.024Z,96075.50
2023-05-19T00:02:58.398Z,96085.25
2023-05-19T00:04:02.862Z,96072.28
2023-05-19T00:05:07.001Z,96073.09
2023-05-19T00:06:09.844Z,96074.19
2023-05-19T00:07:18.516Z,96073.50
2023-05-19T00:08:22.724Z,96067.59
2023-05-19T00:09:26.077Z,96068.25
2023-05-19T00:10:31.658Z,96068.25
2023-05-19T00:11:36.267Z,96062.78
2023-05-19T00:12:38.713Z,96061.56
2023-05-19T00:13:41.934Z,96065.09
2023-05-19T00:14:44.385Z,96063.63
2023-05-19T00:15:47.978Z,96062.91
2023-05-19T00:16:50.515Z,96069.91
2023-05-19T00:17:55.259Z,96063.75
2023-05-19T00:18:59.879Z,96067.88
2023-05-19T00:20:07.313Z,96061.38
2023-05-19T00:21:09.360Z,96064.78
2023-05-19T00:22:12.477Z,96060.34
2023-05-19T00:23:15.774Z,96060.88
2023-05-19T00:24:18.983Z,96062.25
2023-05-19T00:25:21.065Z,96067.91
2023-05-19T00:26:24.203Z,96059.84
2023-05-19T00:27:43.816Z,96060.88
2023-05-19T00:28:46.748Z,96064.47
2023-05-19T00:29:49.720Z,96065.84
2023-05-19T00:30:51.819Z,96064.97
2023-05-19T00:31:54.790Z,96059.66
2023-05-19T00:32:56.869Z,96064.38
2023-05-19T00:33:59.830Z,96061.06
2023-05-19T00:35:01.835Z,96066.94
2023-05-19T00:36:05.890Z,96066.38
2023-05-19T00:37:07.969Z,96064.66
2023-05-19T00:38:10.820Z,96061.06
2023-05-19T00:39:14.612Z,96060.97
2023-05-19T00:40:17.917Z,96062.41
2023-05-19T00:41:19.996Z,96057.63
2023-05-19T00:42:23.418Z,96052.47
2023-05-19T00:43:25.999Z,96055.22
2023-05-19T00:44:28.927Z,96060.38
2023-05-19T00:45:30.924Z,96050.59
2023-05-19T00:46:34.043Z,96054.47
2023-05-19T00:47:36.253Z,96048.88
2023-05-19T00:48:39.234Z,96054.72
2023-05-19T00:49:41.211Z,96052.31
2023-05-19T00:50:44.683Z,96049.84
2023-05-19T00:51:46.714Z,96050.59
2023-05-19T00:52:50.503Z,96048.03
2023-05-19T00:53:52.517Z,96047.16
2023-05-19T00:54:57.052Z,96045.13
2023-05-19T00:56:00.499Z,96045.81
2023-05-19T00:57:04.611Z,96051.38
2023-05-19T00:58:07.142Z,96030.88
2023-05-19T00:59:10.264Z,96042.28
2023-05-19T01:00:14.090Z,96037.22
2023-05-19T01:01:17.420Z,96038.06
2023-05-19T01:02:19.670Z,96040.91
2023-05-19T01:03:23.426Z,96038.06
2023-05-19T01:04:26.577Z,96038.75
2023-05-19T01:05:29.588Z,96038.41
2023-05-19T01:06:31.528Z,96037.56
2023-05-19T01:07:34.507Z,96039.44
2023-05-19T01:08:37.853Z,96040.91
2023-05-19T01:09:41.605Z,96034.38
2023-05-19T01:10:45.170Z,96040.56
2023-05-19T01:11:48.205Z,96033.44
2023-05-19T01:12:50.255Z,96036.94
2023-05-19T01:13:53.605Z,96038.06
2023-05-19T01:14:56.240Z,96037.22
2023-05-19T01:16:03.330Z,96038.84
2023-05-19T01:17:15.112Z,96033.19
2023-05-19T01:18:23.764Z,96035.06
2023-05-19T01:19:41.349Z,96035.66
2023-05-19T01:20:48.132Z,96034.38
2023-05-19T01:22:14.899Z,96038.94
2023-05-19T01:23:29.194Z,96038.84
2023-05-19T01:24:51.362Z,96037.22
2023-05-19T01:26:37.004Z,96048.84
2023-05-19T01:27:49.842Z,96043.53
2023-05-19T01:29:28.597Z,96039.09
2023-05-19T01:30:37.088Z,96046.63
2023-05-19T01:31:42.119Z,96051.72
2023-05-19T01:32:45.585Z,96046.44
2023-05-19T01:33:50.341Z,96042.63
2023-05-19T01:34:54.687Z,96038.91
2023-05-19T01:35:58.477Z,96043.75
2023-05-19T01:37:01.637Z,96049.50
2023-05-19T01:38:06.464Z,96049.56
2023-05-19T01:39:08.758Z,96048.25
2023-05-19T01:40:12.243Z,96050.63
2023-05-19T01:41:15.822Z,96053.50
2023-05-19T01:42:20.402Z,96054.13
2023-05-19T01:43:25.349Z,96044.56
2023-05-19T01:44:29.660Z,96047.91
2023-05-19T01:45:34.181Z,96042.59
2023-05-19T01:46:38.556Z,96042.09
2023-05-19T01:47:42.845Z,96047.84
2023-05-19T01:48:46.561Z,96054.88
2023-05-19T01:49:48.810Z,96054.44
2023-05-19T01:50:52.359Z,96048.84
2023-05-19T01:51:54.451Z,96046.47
2023-05-19T01:52:58.837Z,96050.25
2023-05-19T01:54:01.189Z,96052.13
2023-05-19T01:55:04.146Z,96050.16
2023-05-19T01:56:07.215Z,96048.53
2023-05-19T01:57:18.423Z,96053.16
2023-05-19T01:58:28.938Z,96054.28
2023-05-19T01:59:48.766Z,96047.69
2023-05-19T02:01:02.290Z,96049.56
2023-05-19T02:02:15.647Z,96051.63
2023-05-19T02:03:30.124Z,96043.38
2023-05-19T02:04:40.898Z,96051.09
2023-05-19T02:05:59.331Z,96040.81
2023-05-19T02:07:05.852Z,96049.03
2023-05-19T02:08:17.037Z,96043.19
2023-05-19T02:09:26.168Z,96050.59
2023-05-19T02:10:31.131Z,96040.09
2023-05-19T02:11:38.796Z,96039.94
2023-05-19T02:12:41.478Z,96049.81
2023-05-19T02:13:48.212Z,96043.31
2023-05-19T02:14:55.049Z,96046.41
2023-05-19T02:16:04.686Z,96043.16
2023-05-19T02:17:07.066Z,96041.09
2023-05-19T02:18:11.529Z,96037.00
2023-05-19T02:19:21.853Z,96042.47
2023-05-19T02:20:24.932Z,96037.59
2023-05-19T02:21:26.865Z,96045.34
2023-05-19T02:22:31.755Z,96042.81
2023-05-19T02:23:33.649Z,96044.22
2023-05-19T02:24:36.703Z,96035.81
2023-05-19T02:25:38.647Z,96038.97
2023-05-19T02:26:42.175Z,96033.41
2023-05-19T02:27:44.102Z,96032.56
2023-05-19T02:28:46.950Z,96035.97
2023-05-19T02:29:48.953Z,96037.69
2023-05-19T02:30:52.136Z,96032.97
2023-05-19T02:31:57.327Z,96039.50
2023-05-19T02:33:00.556Z,96031.69
2023-05-19T02:34:02.504Z,96029.97
2023-05-19T02:35:07.201Z,96037.25
2023-05-19T02:36:10.172Z,96049.34
2023-05-19T02:37:13.687Z,96042.44
2023-05-19T02:38:15.720Z,96039.56
2023-05-19T02:39:19.249Z,96040.59
2023-05-19T02:40:23.049Z,96035.13
2023-05-19T02:41:26.216Z,96036.94
2023-05-19T02:42:28.135Z,96032.56
2023-05-19T02:43:31.452Z,96039.16
2023-05-19T02:44:33.489Z,96027.78
2023-05-19T02:45:36.395Z,96024.59
2023-05-19T02:46:38.780Z,96025.19
2023-05-19T02:47:43.163Z,96022.28
2023-05-19T02:48:45.200Z,96023.81
2023-05-19T02:49:48.091Z,96023.41
2023-05-19T02:50:50.743Z,96021.59
2023-05-19T02:51:53.915Z,96022.78
2023-05-19T02:52:55.896Z,96017.66
2023-05-19T02:53:58.948Z,96021.59
2023-05-19T02:55:00.956Z,96022.00
2023-05-19T02:56:04.118Z,96023.16
2023-05-19T02:57:06.851Z,96027.94
2023-05-19T02:58:09.741Z,96024.69
2023-05-19T02:59:11.641Z,96019.97
2023-05-19T03:00:15.610Z,96016.50
2023-05-19T03:01:21.332Z,96020.06
2023-05-19T03:02:24.311Z,96019.97
2023-05-19T03:03:28.708Z,96015.16
2023-05-19T03:04:31.684Z,96013.53
2023-05-19T03:05:33.671Z,96017.38
2023-05-19T03:06:36.642Z,96016.97
2023-05-19T03:07:38.513Z,96013.19
2023-05-19T03:08:42.428Z,96013.94
2023-05-19T03:09:45.497Z,96010.44
2023-05-19T03:10:48.130Z,96014.06
2023-05-19T03:11:51.272Z,96014.41
2023-05-19T03:12:53.212Z,96015.16
2023-05-19T03:13:56.150Z,96013.00
2023-05-19T03:14:58.019Z,96008.22
2023-05-19T03:16:02.091Z,96008.03
2023-05-19T03:17:04.892Z,96008.97
2023-05-19T03:18:07.965Z,96005.63
2023-05-19T03:19:11.513Z,96014.88
2023-05-19T03:20:15.774Z,96015.56
2023-05-19T03:21:17.703Z,96003.75
2023-05-19T03:22:20.974Z,96006.50
2023-05-19T03:23:22.897Z,96013.00
2023-05-19T03:24:25.798Z,96006.69
2023-05-19T03:25:27.691Z,96014.63
2023-05-19T03:26:30.625Z,96010.00
2023-05-19T03:27:32.557Z,96010.84
2023-05-19T03:28:35.506Z,96003.81
2023-05-19T03:29:37.386Z,96003.81
2023-05-19T03:30:40.333Z,96007.09
2023-05-19T03:31:47.289Z,96013.69
2023-05-19T03:32:52.647Z,96010.25
2023-05-19T03:33:54.754Z,96009.38
2023-05-19T03:34:59.747Z,96006.97
2023-05-19T03:36:01.884Z,96005.09
2023-05-19T03:37:10.586Z,96010.41
2023-05-19T03:38:13.348Z,96000.13
2023-05-19T03:39:22.825Z,96000.47
2023-05-19T03:40:25.234Z,95996.47
2023-05-19T03:41:36.595Z,96000.66
2023-05-19T03:42:39.131Z,95994.31
2023-05-19T03:43:42.185Z,95997.31
2023-05-19T03:44:45.598Z,95994.50
2023-05-19T03:45:50.071Z,96001.97
2023-05-19T03:47:11.474Z,95992.53
2023-05-19T03:48:31.923Z,95997.59
2023-05-19T03:49:53.363Z,95993.28
2023-05-19T03:51:15.140Z,95999.56
2023-05-19T03:52:18.300Z,95996.88
2023-05-19T03:53:30.706Z,95999.84
2023-05-19T03:54:33.602Z,95996.31
2023-05-19T03:55:37.230Z,95999.56
2023-05-19T03:56:41.137Z,96009.81
2023-05-19T03:57:44.284Z,96004.53
2023-05-19T03:58:48.232Z,96000.44
2023-05-19T03:59:50.236Z,96000.28
2023-05-19T04:00:53.226Z,95993.53
2023-05-19T04:01:55.172Z,95998.09
2023-05-19T04:02:58.162Z,96000.38
2023-05-19T04:04:00.279Z,95993.28
2023-05-19T04:05:05.027Z,96003.75
2023-05-19T04:06:07.375Z,95996.66
2023-05-19T04:07:11.732Z,95999.19
2023-05-19T04:08:13.591Z,95993.28
2023-05-19T04:09:17.387Z,95990.03
2023-05-19T04:10:19.811Z,95994.31
2023-05-19T04:11:23.327Z,95999.72
2023-05-19T04:12:26.863Z,95987.91
2023-05-19T04:13:29.768Z,96001.19
2023-05-19T04:14:31.673Z,95996.91
2023-05-19T04:15:35.060Z,96005.13
2023-05-19T04:16:37.213Z,95994.16
2023-05-19T04:17:40.750Z,95997.25
2023-05-19T04:18:46.237Z,95997.59
2023-05-19T04:19:49.325Z,95999.97
2023-05-19T04:20:51.279Z,95999.56
2023-05-19T04:21:55.666Z,96000.34
2023-05-19T04:22:58.979Z,96002.56
2023-05-19T04:24:01.856Z,96001.44
2023-05-19T04:25:04.977Z,96000.56
2023-05-19T04:26:07.979Z,96000.94
2023-05-19T04:27:12.189Z,95999.41
2023-05-19T04:28:16.389Z,95999.41
2023-05-19T04:29:18.686Z,96007.19
2023-05-19T04:30:22.684Z,96000.50
2023-05-19T04:31:27.458Z,96007.19
2023-05-19T04:32:31.081Z,96001.38
2023-05-19T04:33:33.994Z,96000.56
2023-05-19T04:34:40.249Z,96006.50
2023-05-19T04:35:43.808Z,96002.78
2023-05-19T04:36:48.574Z,96002.78
2023-05-19T04:37:54.289Z,96005.06
2023-05-19T04:39:07.332Z,96000.84
2023-05-19T04:40:11.148Z,96000.03
2023-05-19T04:41:16.474Z,95998.09
2023-05-19T04:42:19.503Z,96001.50
2023-05-19T04:43:22.976Z,96008.09
2023-05-19T04:44:26.321Z,95998.94
2023-05-19T04:45:30.124Z,96002.72
2023-05-19T04:46:35.139Z,96000.69
2023-05-19T04:47:38.348Z,95995.53
2023-05-19T04:48:41.195Z,95997.59
2023-05-19T04:49:46.023Z,95996.81
2023-05-19T04:50:48.840Z,95999.03
2023-05-19T04:51:55.522Z,96000.84
2023-05-19T04:53:01.274Z,96006.25
2023-05-19T04:54:05.701Z,96003.59
2023-05-19T04:55:11.214Z,96000.50
2023-05-19T04:56:15.381Z,96005.31
2023-05-19T04:57:17.693Z,96003.84
2023-05-19T04:58:21.826Z,95998.78
2023-05-19T04:59:25.116Z,96005.47
2023-05-19T05:00:28.350Z,95995.72
2023-05-19T05:01:35.388Z,96001.50
2023-05-19T05:02:37.448Z,95997.25
2023-05-19T05:03:40.553Z,95996.91
2023-05-19T05:04:44.152Z,95994.47
2023-05-19T05:05:47.041Z,95988.63
2023-05-19T05:06:49.563Z,95995.28
2023-05-19T05:07:54.904Z,95999.19
2023-05-19T05:08:58.567Z,95989.13
2023-05-19T05:10:03.830Z,95995.63
2023-05-19T05:11:07.006Z,95993.19
2023-05-19T05:12:12.394Z,95989.94
2023-05-19T05:13:15.979Z,95984.38
2023-05-19T05:14:19.366Z,95989.69
2023-05-19T05:15:24.258Z,95989.06
2023-05-19T05:16:28.185Z,95988.28
2023-05-19T05:17:32.549Z,95991.81
2023-05-19T05:18:36.617Z,95986.59
2023-05-19T05:19:39.378Z,95989.84
2023-05-19T05:20:43.888Z,95988.28
2023-05-19T05:21:47.788Z,95985.38
2023-05-19T05:22:52.456Z,95988.41
2023-05-19T05:23:56.122Z,95990.84
2023-05-19T05:25:04.369Z,95977.44
2023-05-19T05:26:11.055Z,95990.63
2023-05-19T05:27:14.524Z,95983.50
2023-05-19T05:28:16.720Z,95980.25
2023-05-19T05:29:20.838Z,95984.88
2023-05-19T05:30:22.860Z,95983.59
2023-05-19T05:31:25.919Z,95989.00
2023-05-19T05:32:28.759Z,95985.03
2023-05-19T05:33:31.918Z,95981.47
2023-05-19T05:34:34.294Z,95973.13
2023-05-19T05:35:37.282Z,95988.31
2023-05-19T05:36:41.275Z,95988.25
2023-05-19T05:37:45.936Z,95988.28
2023-05-19T05:38:48.107Z,95993.25
2023-05-19T05:39:51.206Z,95982.28
2023-05-19T05:40:55.789Z,95988.97
2023-05-19T05:41:57.714Z,95990.09
2023-05-19T05:43:00.743Z,95996.19
2023-05-19T05:44:06.365Z,95985.91
2023-05-19T05:45:09.796Z,95988.47
2023-05-19T05:46:12.015Z,96001.25
2023-05-19T05:47:15.840Z,95994.50
2023-05-19T05:48:18.721Z,95995.53
2023-05-19T05:49:22.350Z,95997.00
2023-05-19T05:50:25.813Z,95992.97
2023-05-19T05:51:32.917Z,95999.91
2023-05-19T05:52:37.211Z,95995.53
2023-05-19T05:53:44.058Z,95995.44
2023-05-19T05:54:48.006Z,95989.53
2023-05-19T05:55:55.936Z,95993.38
2023-05-19T05:57:03.881Z,95992.69
2023-05-19T05:58:11.338Z,95985.31
2023-05-19T05:59:14.314Z,95980.00
2023-05-19T06:00:18.020Z,95984.28
2023-05-19T06:01:28.118Z,95982.66
2023-05-19T06:02:30.281Z,95980.69
2023-05-19T06:03:34.749Z,95977.84
2023-05-19T06:04:41.215Z,95983.69
2023-05-19T06:05:44.205Z,95993.97
2023-05-19T06:06:46.223Z,95997.06
2023-05-19T06:07:53.900Z,95999.31
2023-05-19T06:08:59.912Z,95995.41
2023-05-19T06:10:04.150Z,95993.38
2023-05-19T06:11:08.285Z,96003.59
2023-05-19T06:12:12.238Z,95989.16
2023-05-19T06:13:23.957Z,95986.06
2023-05-19T06:14:27.007Z,95992.59
2023-05-19T06:15:49.172Z,95986.94
2023-05-19T06:16:56.789Z,95982.16
2023-05-19T06:17:58.743Z,95987.88
2023-05-19T06:19:01.773Z,95988.97
2023-05-19T06:20:05.454Z,95987.44
2023-05-19T06:21:10.274Z,95984.38
2023-05-19T06:22:13.015Z,95983.50
2023-05-19T06:23:15.954Z,95985.75
2023-05-19T06:24:18.093Z,95987.44
2023-05-19T06:25:21.277Z,95983.94
2023-05-19T06:26:24.581Z,95982.66
2023-05-19T06:27:27.492Z,95986.84
2023-05-19T06:28:30.516Z,95984.25
2023-05-19T06:29:32.776Z,95982.28
2023-05-19T06:30:39.330Z,95974.75
2023-05-19T06:31:56.509Z,95978.84
2023-05-19T06:32:58.824Z,95979.88
2023-05-19T06:34:02.914Z,95977.16
2023-05-19T06:35:05.707Z,95968.53
2023-05-19T06:36:10.144Z,95969.88
2023-05-19T06:37:17.002Z,95974.50
2023-05-19T06:38:19.938Z,95962.94
2023-05-19T06:39:21.894Z,95985.41
2023-05-19T06:40:25.072Z,95976.38
2023-05-19T06:41:29.959Z,95982.88
2023-05-19T06:42:32.927Z,95986.66
2023-05-19T06:43:49.441Z,95982.88
2023-05-19T06:44:52.673Z,95982.13
2023-05-19T06:45:55.587Z,95997.94
2023-05-19T06:46:59.854Z,95988.66
2023-05-19T06:48:02.876Z,95990.31
2023-05-19T06:49:05.007Z,95999.16
2023-05-19T06:50:12.939Z,95997.25
2023-05-19T06:51:21.640Z,95988.59
2023-05-19T06:52:28.978Z,95988.81
2023-05-19T06:53:34.084Z,95988.53
2023-05-19T06:54:39.573Z,95990.88
2023-05-19T06:55:57.462Z,95990.66
2023-05-19T06:57:05.062Z,95999.38
2023-05-19T06:58:08.017Z,95990.25
2023-05-19T06:59:10.302Z,95993.66
2023-05-19T07:00:17.927Z,95997.38
2023-05-19T07:01:24.319Z,95992.00
2023-05-19T07:02:29.883Z,96005.06
2023-05-19T07:03:33.646Z,95995.53
2023-05-19T07:04:35.757Z,96004.19
2023-05-19T07:05:38.701Z,95992.34
2023-05-19T07:06:40.658Z,95992.34
2023-05-19T07:07:45.066Z,95996.53
2023-05-19T07:08:49.574Z,95988.81
2023-05-19T07:09:53.603Z,96000.59
2023-05-19T07:10:56.321Z,95990.78
2023-05-19T07:11:59.361Z,95993.97
2023-05-19T07:13:04.478Z,95990.09
2023-05-19T07:14:08.266Z,95995.25
2023-05-19T07:15:12.378Z,95986.94
2023-05-19T07:16:14.753Z,95994.91
2023-05-19T07:17:17.806Z,95990.38
2023-05-19T07:18:21.187Z,95983.38
2023-05-19T07:19:24.315Z,96000.06
2023-05-19T07:20:29.813Z,95996.75
2023-05-19T07:21:33.681Z,95996.97
2023-05-19T07:22:35.926Z,95987.31
2023-05-19T07:23:38.995Z,95991.59
2023-05-19T07:24:40.927Z,95987.13
2023-05-19T07:25:43.875Z,95993.81
2023-05-19T07:26:45.759Z,96001.84
2023-05-19T07:27:48.726Z,95999.66
2023-05-19T07:28:52.309Z,96001.84
2023-05-19T07:29:55.535Z,95994.38
2023-05-19T07:30:57.471Z,95991.63
2023-05-19T07:32:00.537Z,95998.13
2023-05-19T07:33:03.624Z,95989.34
2023-05-19T07:34:06.011Z,95988.44
2023-05-19T07:35:09.446Z,95986.47
2023-05-19T07:36:11.385Z,96001.84
2023-05-19T07:37:14.305Z,95982.94
2023-05-19T07:38:16.222Z,95994.06
2023-05-19T07:39:19.559Z,95991.63
2023-05-19T07:40:21.730Z,95989.22
2023-05-19T07:41:24.644Z,95993.94
2023-05-19T07:42:26.724Z,95989.22
2023-05-19T07:43:29.728Z,95984.81
2023-05-19T07:44:34.995Z,95987.69
2023-05-19T07:45:37.184Z,95991.19
2023-05-19T07:46:40.106Z,95988.75
2023-05-19T07:47:42.118Z,95985.56
2023-05-19T07:48:45.370Z,95984.75
2023-05-19T07:49:50.387Z,95985.00
2023-05-19T07:50:53.809Z,95991.28
2023-05-19T07:51:56.783Z,95983.69
2023-05-19T07:52:59.763Z,95992.78
2023-05-19T07:54:02.281Z,95992.16
2023-05-19T07:55:05.682Z,95997.16
2023-05-19T07:56:07.626Z,95990.78
2023-05-19T07:57:10.632Z,95993.31
2023-05-19T07:58:12.841Z,95983.75
2023-05-19T07:59:16.034Z,95989.81
2023-05-19T08:00:19.970Z,95986.75
2023-05-19T08:01:22.884Z,95992.91
2023-05-19T08:02:24.977Z,95991.81
2023-05-19T08:03:28.459Z,95980.28
2023-05-19T08:04:31.626Z,95987.41
2023-05-19T08:05:34.930Z,95978.28
2023-05-19T08:06:37.881Z,95984.88
2023-05-19T08:07:40.005Z,95984.81
2023-05-19T08:08:43.247Z,95993.28
2023-05-19T08:09:45.153Z,95980.75
2023-05-19T08:10:48.076Z,95979.88
2023-05-19T08:11:51.082Z,95988.09
2023-05-19T08:12:53.975Z,95989.53
2023-05-19T08:13:55.969Z,95985.09
2023-05-19T08:15:01.172Z,95982.69
2023-05-19T08:16:05.350Z,95988.53
2023-05-19T08:17:08.372Z,95978.53
2023-05-19T08:18:10.556Z,95975.25
2023-05-19T08:19:13.591Z,95978.34
2023-05-19T08:20:16.046Z,95990.88
2023-05-19T08:21:18.994Z,95981.44
2023-05-19T08:22:22.033Z,95981.44
2023-05-19T08:23:23.964Z,95984.19
2023-05-19T08:24:29.461Z,95980.75
2023-05-19T08:25:31.458Z,95992.03
2023-05-19T08:26:36.922Z,95987.69
2023-05-19T08:27:39.601Z,95982.53
2023-05-19T08:28:42.541Z,95979.38
2023-05-19T08:29:44.780Z,95975.19
2023-05-19T08:30:47.755Z,95979.13
2023-05-19T08:31:53.091Z,95987.69
2023-05-19T08:32:55.600Z,95974.31
2023-05-19T08:33:58.794Z,95977.38
2023-05-19T08:35:00.782Z,95971.13
2023-05-19T08:36:03.801Z,95971.69
2023-05-19T08:37:05.755Z,95979.41
2023-05-19T08:38:08.703Z,95981.81
2023-05-19T08:39:11.033Z,95980.81
2023-05-19T08:40:18.384Z,95971.69
2023-05-19T08:41:21.541Z,95982.47
2023-05-19T08:42:24.669Z,95976.44
2023-05-19T08:43:27.624Z,95966.56
2023-05-19T08:44:30.940Z,95973.03
2023-05-19T08:45:34.961Z,95983.84
2023-05-19T08:46:37.238Z,95979.53
2023-05-19T08:47:42.487Z,95977.13
2023-05-19T08:48:45.176Z,95968.00
2023-05-19T08:49:53.860Z,95984.50
2023-05-19T08:51:09.075Z,95969.75
2023-05-19T08:52:21.044Z,95974.94
2023-05-19T08:54:55.850Z,95976.38
2023-05-19T08:56:02.302Z,95978.34
2023-05-19T08:57:05.946Z,95971.75
2023-05-19T08:58:08.631Z,95983.09
2023-05-19T08:59:12.546Z,95985.28
2023-05-19T09:00:17.897Z,95972.84
2023-05-19T09:01:21.339Z,95974.91
2023-05-19T09:02:24.367Z,95978.53
2023-05-19T09:03:29.385Z,95969.28
2023-05-19T09:04:33.426Z,95970.94
2023-05-19T09:05:35.918Z,95968.53
2023-05-19T09:06:40.938Z,95970.94
2023-05-19T09:07:44.936Z,95967.44
2023-05-19T09:08:48.220Z,95974.09
2023-05-19T09:09:50.127Z,95966.97
2023-05-19T09:10:53.134Z,95962.91
2023-05-19T09:11:56.163Z,95966.53
2023-05-19T09:12:58.633Z,95965.00
2023-05-19T09:14:01.560Z,95978.53
2023-05-19T09:15:04.709Z,95969.97
2023-05-19T09:16:08.817Z,95964.25
2023-05-19T09:17:12.011Z,95965.69
2023-05-19T09:18:15.185Z,95966.47
2023-05-19T09:19:20.837Z,95978.13
2023-05-19T09:20:23.069Z,95969.63
2023-05-19T09:21:31.099Z,95969.75
2023-05-19T09:22:35.660Z,95972.84
2023-05-19T09:23:38.540Z,95965.25
2023-05-19T09:24:41.404Z,95966.38
2023-05-19T09:25:51.557Z,95958.53
2023-05-19T09:26:56.999Z,95964.16
2023-05-19T09:28:00.898Z,95963.41
2023-05-19T09:29:03.246Z,95965.47
2023-05-19T09:30:10.344Z,95963.84
2023-05-19T09:31:13.865Z,95959.88
2023-05-19T09:32:25.021Z,95961.75
2023-05-19T09:33:28.264Z,95963.84
2023-05-19T09:34:32.596Z,95964.06
2023-05-19T09:35:35.216Z,95962.75
2023-05-19T09:36:40.947Z,95973.31
2023-05-19T09:37:44.522Z,95968.44
2023-05-19T09:38:47.489Z,95972.97
2023-05-19T09:39:52.782Z,95972.53
2023-05-19T09:40:58.133Z,95983.22
2023-05-19T09:42:07.292Z,95968.88
2023-05-19T09:43:09.875Z,95975.72
2023-05-19T09:44:23.575Z,95970.94
2023-05-19T09:45:28.395Z,95975.94
2023-05-19T09:46:30.450Z,95962.50
2023-05-19T09:47:38.178Z,95966.13
2023-05-19T09:48:41.247Z,95963.97
2023-05-19T09:49:47.798Z,95964.59
2023-05-19T09:50:51.713Z,95965.38
2023-05-19T09:51:54.598Z,95968.44
2023-05-19T09:52:58.457Z,95966.50
2023-05-19T09:54:00.696Z,95965.28
2023-05-19T09:55:05.633Z,95962.72
2023-05-19T09:56:09.735Z,95960.53
2023-05-19T09:57:12.674Z,95961.41
2023-05-19T09:58:17.402Z,95964.50
2023-05-19T09:59:24.976Z,95962.31
2023-05-19T10:00:28.179Z,95968.00
2023-05-19T10:01:33.662Z,95957.56
2023-05-19T10:02:36.552Z,95957.44
2023-05-19T10:03:40.301Z,95962.94
2023-05-19T10:04:42.759Z,95963.63
2023-05-19T10:05:48.686Z,95960.53
2023-05-19T10:06:53.591Z,95952.63
2023-05-19T10:07:56.725Z,95957.34
2023-05-19T10:09:01.408Z,95958.78
2023-05-19T10:10:03.806Z,95951.09
2023-05-19T10:11:07.669Z,95957.13
2023-05-19T10:12:12.206Z,95957.78
2023-05-19T10:13:15.748Z,95953.59
2023-05-19T10:14:19.295Z,95962.31
2023-05-19T10:15:23.368Z,95956.91
2023-05-19T10:16:28.900Z,95957.44
2023-05-19T10:17:32.554Z,95959.69
2023-05-19T10:18:37.711Z,95955.63
2023-05-19T10:19:44.411Z,95960.00
2023-05-19T10:20:50.131Z,95953.63
2023-05-19T10:21:53.221Z,95949.31
2023-05-19T10:22:56.529Z,95954.81
2023-05-19T10:23:58.569Z,95955.50
2023-05-19T10:25:01.567Z,95948.34
2023-05-19T10:26:06.882Z,95960.44
2023-05-19T10:27:14.522Z,95960.13
2023-05-19T10:28:20.522Z,95953.97
2023-05-19T10:29:28.465Z,95956.25
2023-05-19T10:30:36.169Z,95960.22
2023-05-19T10:31:41.691Z,95947.56
2023-05-19T10:32:48.542Z,95961.66
2023-05-19T10:34:06.571Z,95960.78
2023-05-19T10:35:32.521Z,95957.69
2023-05-19T10:36:47.464Z,95948.25
2023-05-19T10:37:58.984Z,95954.94
2023-05-19T10:39:06.319Z,95957.38
2023-05-19T10:40:13.624Z,95947.56
2023-05-19T10:41:26.055Z,95949.13
2023-05-19T10:42:36.756Z,95957.38
2023-05-19T10:43:50.383Z,95964.97
2023-05-19T10:45:02.323Z,95962.44
2023-05-19T10:46:05.051Z,95956.81
2023-05-19T10:47:08.655Z,95951.31
2023-05-19T10:48:12.786Z,95961.31
2023-05-19T10:49:22.169Z,95957.00
2023-05-19T10:50:25.241Z,95954.22
2023-05-19T10:51:32.840Z,95955.88
2023-05-19T10:52:39.313Z,95957.31
2023-05-19T10:53:46.146Z,95955.75
2023-05-19T10:54:49.580Z,95950.16
2023-05-19T10:55:56.583Z,95951.59
2023-05-19T10:56:58.544Z,95952.03
2023-05-19T10:58:01.511Z,95961.72
2023-05-19T10:59:04.675Z,95959.53
2023-05-19T11:00:28.792Z,95962.91
2023-05-19T11:01:33.705Z,95958.00
2023-05-19T11:02:41.222Z,95959.53
2023-05-19T11:03:49.617Z,95950.38
2023-05-19T11:04:53.455Z,95950.16
2023-05-19T11:06:18.884Z,95936.84
2023-05-19T11:07:24.575Z,95949.28
2023-05-19T11:08:33.507Z,95942.38
2023-05-19T11:09:41.803Z,95949.06
2023-05-19T11:10:46.025Z,95951.31
2023-05-19T11:11:50.331Z,95959.69
2023-05-19T11:12:52.375Z,95949.31
2023-05-19T11:13:56.852Z,95949.22
2023-05-19T11:14:59.568Z,95955.63
2023-05-19T11:16:08.694Z,95952.31
2023-05-19T11:17:15.856Z,95952.63
2023-05-19T11:18:19.478Z,95954.81
2023-05-19T11:19:28.252Z,95947.16
2023-05-19T11:20:32.028Z,95942.84
2023-05-19T11:21:49.096Z,95950.56
2023-05-19T11:23:08.637Z,95948.91
2023-05-19T11:24:40.695Z,95953.09
2023-05-19T11:25:44.297Z,95960.88
2023-05-19T11:26:47.516Z,95948.78
2023-05-19T11:27:52.819Z,95951.88
2023-05-19T11:28:55.937Z,95945.94
2023-05-19T11:29:59.521Z,95940.78
2023-05-19T11:31:04.085Z,95947.03
2023-05-19T11:32:07.365Z,95937.56
2023-05-19T11:33:11.060Z,95945.38
2023-05-19T11:34:13.906Z,95944.16
2023-05-19T11:35:19.138Z,95939.66
2023-05-19T11:36:23.384Z,95945.59
2023-05-19T11:37:25.578Z,95951.75
2023-05-19T11:38:30.200Z,95955.03
2023-05-19T11:39:35.003Z,95946.91
2023-05-19T11:40:38.152Z,95947.56
2023-05-19T11:41:40.652Z,95947.47
2023-05-19T11:42:44.848Z,95935.25
2023-05-19T11:43:48.592Z,95936.34
2023-05-19T11:44:50.516Z,95941.00
2023-05-19T11:45:54.736Z,95925.25
2023-05-19T11:46:57.697Z,95935.50
2023-05-19T11:48:03.068Z,95939.09
2023-05-19T11:49:05.813Z,95942.53
2023-05-19T11:50:12.624Z,95941.00
2023-05-19T11:51:16.504Z,95952.63
2023-05-19T11:52:21.972Z,95956.59
2023-05-19T11:53:25.038Z,95956.19
2023-05-19T11:54:31.637Z,95949.44
2023-05-19T11:55:36.890Z,95955.19
2023-05-19T11:56:41.795Z,95948.34
2023-05-19T11:58:02.886Z,95948.69
2023-05-19T11:59:06.545Z,95953.31
2023-05-19T12:00:10.726Z,95945.47
2023-05-19T12:01:13.910Z,95954.41
2023-05-19T12:02:19.093Z,95958.13
2023-05-19T12:03:26.496Z,95950.22
2023-05-19T12:04:29.073Z,95958.69
2023-05-19T12:05:35.441Z,95940.88
2023-05-19T12:06:41.674Z,95937.56
2023-05-19T12:07:44.295Z,95951.41
2023-05-19T12:08:47.407Z,95953.97
2023-05-19T12:09:51.719Z,95942.28
2023-05-19T12:10:56.215Z,95942.84
2023-05-19T12:11:59.485Z,95942.75
2023-05-19T12:13:03.045Z,95946.16
2023-05-19T12:14:07.060Z,95955.94
2023-05-19T12:15:10.465Z,95949.69
2023-05-19T12:16:13.579Z,95947.59
2023-05-19T12:17:17.632Z,95952.63
2023-05-19T12:18:21.081Z,95949.44
2023-05-19T12:19:24.498Z,95951.31
2023-05-19T12:20:27.657Z,95947.94
2023-05-19T12:21:33.726Z,95940.09
2023-05-19T12:22:38.045Z,95940.31
2023-05-19T12:23:41.544Z,95946.16
2023-05-19T12:24:45.905Z,95940.22
2023-05-19T12:25:49.510Z,95953.19
2023-05-19T12:26:53.756Z,95951.56
2023-05-19T12:27:58.357Z,95947.56
2023-05-19T12:29:01.555Z,95943.63
2023-05-19T12:30:04.487Z,95951.88
2023-05-19T12:31:07.503Z,95949.56
2023-05-19T12:32:10.206Z,95948.91
2023-05-19T12:33:13.248Z,95945.47
2023-05-19T12:34:15.908Z,95943.53
2023-05-19T12:35:19.751Z,95948.13
2023-05-19T12:36:25.070Z,95939.31
2023-05-19T12:37:27.760Z,95945.00
2023-05-19T12:38:30.713Z,95944.72
2023-05-19T12:39:34.073Z,95939.31
2023-05-19T12:40:40.566Z,95936.81
2023-05-19T12:41:45.205Z,95941.00
2023-05-19T12:42:52.160Z,95941.41